Terminal Aerodrome Forecast
Issued by NWS

Home | Current Version | Previous Version | Text Only | Print | Product List | Glossary On
Versions: 1 2 3 4 5 6 7 8 9 10 11 12 13 14
000
FTUS46 KMTR 231100
TAFSTS
TAF
KSTS 231120Z 2312/2412 15004KT P6SM SKC
     FM231600 VRB03KT P6SM SKC
     FM232000 20009KT P6SM SKC
     FM240400 16005KT P6SM SKC
     FM240900 16003KT P6SM OVC015=

USA.gov is the U.S. government's official web portal to all federal, state and local government web resources and services.